Time;durP1;ratioP1;P1;durP2;ratioP2;P2;SDS_P1;SDS_P2;PMS_P1;PMS_P2;Temp;Humidity;BMP_temperature;BMP_pressure;BME280_temperature;BME280_humidity;BME280_pressure;Samples;Min_cycle;Max_cycle;Signal;HPM_P1;HPM_P2
2023/02/04 00:01:34;;;;;;;2.35;1.48;;;7.10;99.90;;;;;;5073810;28;20029;-36
2023/02/04 00:04:00;;;;;;;1.83;1.40;;;7.10;99.90;;;;;;5073777;28;20386;-34
2023/02/04 00:06:26;;;;;;;2.83;1.88;;;7.10;99.90;;;;;;5073060;28;20103;-43
2023/02/04 00:08:51;;;;;;;2.00;1.40;;;7.10;99.90;;;;;;5073354;28;20024;-43
2023/02/04 00:11:17;;;;;;;2.28;1.73;;;7.20;99.90;;;;;;5073120;28;20035;-41
2023/02/04 00:13:43;;;;;;;1.90;1.63;;;7.10;99.90;;;;;;5073302;28;20032;-37
2023/02/04 00:16:08;;;;;;;1.73;1.60;;;7.20;99.90;;;;;;5072863;28;20127;-36
2023/02/04 00:18:34;;;;;;;2.75;1.50;;;7.10;99.90;;;;;;5073050;28;20033;-32
2023/02/04 00:21:00;;;;;;;1.50;1.38;;;7.20;99.90;;;;;;5073164;28;20029;-42
2023/02/04 00:23:25;;;;;;;1.92;1.50;;;7.10;99.90;;;;;;5072696;28;20028;-40
2023/02/04 00:25:51;;;;;;;1.52;1.30;;;7.20;99.90;;;;;;5072831;28;20050;-43
2023/02/04 00:28:16;;;;;;;1.85;1.40;;;7.20;99.90;;;;;;5072691;28;20013;-42
2023/02/04 00:30:43;;;;;;;2.65;1.70;;;7.20;99.90;;;;;;5072687;28;20129;-35
2023/02/04 00:33:09;;;;;;;2.33;1.50;;;7.10;99.90;;;;;;5072444;28;20039;-41
2023/02/04 00:35:36;;;;;;;1.75;1.50;;;7.10;99.90;;;;;;5073562;28;20036;-38
2023/02/04 00:38:02;;;;;;;2.00;1.55;;;7.20;99.90;;;;;;5074249;28;20056;-34
2023/02/04 00:40:27;;;;;;;1.73;1.33;;;7.10;99.90;;;;;;5073673;28;20036;-43
2023/02/04 00:42:53;;;;;;;1.77;1.40;;;7.10;99.90;;;;;;5072732;28;20026;-43
2023/02/04 00:45:19;;;;;;;1.92;1.35;;;7.10;99.90;;;;;;5072922;28;20021;-34
2023/02/04 00:47:44;;;;;;;1.65;1.30;;;7.10;99.90;;;;;;5072451;28;20363;-41
2023/02/04 00:50:10;;;;;;;2.08;1.45;;;7.10;99.90;;;;;;5072450;28;20029;-42
2023/02/04 00:52:36;;;;;;;1.80;1.25;;;7.20;99.90;;;;;;5072398;28;20024;-43
2023/02/04 00:55:01;;;;;;;1.50;1.40;;;7.20;99.90;;;;;;5072319;28;20474;-43
2023/02/04 00:57:27;;;;;;;1.30;1.20;;;7.20;99.90;;;;;;5072074;28;20021;-43
2023/02/04 00:59:53;;;;;;;1.77;1.30;;;7.20;99.90;;;;;;5071962;28;20086;-35
2023/02/04 01:02:18;;;;;;;1.75;1.42;;;7.10;99.90;;;;;;5072375;28;20025;-32
2023/02/04 01:04:44;;;;;;;2.40;1.30;;;7.10;99.90;;;;;;5071738;28;20525;-34
2023/02/04 01:07:09;;;;;;;1.40;1.30;;;7.10;99.90;;;;;;5071985;28;20386;-34
2023/02/04 01:09:35;;;;;;;1.50;1.38;;;7.20;99.90;;;;;;5071920;28;20390;-33
2023/02/04 01:12:01;;;;;;;2.00;1.40;;;7.10;99.90;;;;;;5072018;28;20063;-32
2023/02/04 01:14:26;;;;;;;2.47;1.42;;;7.20;99.90;;;;;;5071957;28;20089;-36
2023/02/04 01:16:52;;;;;;;1.50;1.40;;;7.20;99.90;;;;;;5072619;28;20035;-35
2023/02/04 01:19:19;;;;;;;1.50;1.27;;;7.20;99.90;;;;;;5071927;28;20020;-37
2023/02/04 01:21:45;;;;;;;2.00;1.30;;;7.20;99.90;;;;;;5071725;28;20048;-36
2023/02/04 01:24:11;;;;;;;1.95;1.40;;;7.10;99.90;;;;;;5071812;28;20048;-34
2023/02/04 01:26:36;;;;;;;1.95;1.10;;;7.10;99.90;;;;;;5071779;28;20474;-43
2023/02/04 01:29:02;;;;;;;1.48;1.20;;;7.10;99.90;;;;;;5071673;28;20058;-41
2023/02/04 01:31:30;;;;;;;1.48;1.30;;;7.10;99.90;;;;;;5071889;28;20478;-40
2023/02/04 01:33:56;;;;;;;1.92;1.42;;;7.10;99.90;;;;;;5071318;28;20033;-36
2023/02/04 01:36:21;;;;;;;2.15;1.40;;;7.10;99.90;;;;;;5071253;28;20035;-43
2023/02/04 01:38:48;;;;;;;1.15;1.05;;;7.20;99.90;;;;;;5071921;28;20048;-43
2023/02/04 01:41:17;;;;;;;2.35;1.40;;;7.20;99.90;;;;;;5072103;28;20537;-43
2023/02/04 01:43:44;;;;;;;1.63;1.23;;;7.20;99.90;;;;;;5071521;28;20059;-33
2023/02/04 01:46:10;;;;;;;1.60;1.02;;;7.20;99.90;;;;;;5071446;28;20017;-43
2023/02/04 01:48:35;;;;;;;3.17;1.60;;;7.20;99.90;;;;;;5071447;28;20073;-35
2023/02/04 01:51:08;;;;;;;1.77;1.40;;;7.20;99.90;;;;;;5071907;28;20031;-36
2023/02/04 01:53:34;;;;;;;2.25;1.50;;;7.10;99.90;;;;;;5072245;28;20031;-33
2023/02/04 01:56:01;;;;;;;1.50;1.20;;;7.10;99.90;;;;;;5071035;28;20063;-43
2023/02/04 01:58:29;;;;;;;2.13;1.50;;;7.20;99.90;;;;;;5071836;28;20036;-43
2023/02/04 02:00:55;;;;;;;2.83;1.20;;;7.10;99.90;;;;;;5071228;28;20150;-40
2023/02/04 02:03:20;;;;;;;1.58;1.17;;;7.20;99.90;;;;;;5071286;28;20111;-32
2023/02/04 02:05:50;;;;;;;2.55;1.50;;;7.10;99.90;;;;;;5071091;28;20024;-43
2023/02/04 02:08:16;;;;;;;2.85;1.45;;;7.20;99.90;;;;;;5071177;28;20115;-34
2023/02/04 02:10:45;;;;;;;3.25;1.52;;;7.20;99.90;;;;;;5071051;28;20036;-35
2023/02/04 02:13:14;;;;;;;2.30;1.50;;;7.20;99.90;;;;;;5071644;28;20021;-35
2023/02/04 02:15:40;;;;;;;2.55;1.10;;;7.20;99.90;;;;;;5071606;28;20083;-35
2023/02/04 02:18:06;;;;;;;2.50;1.40;;;7.20;99.90;;;;;;5075280;28;20059;-38
2023/02/04 02:20:32;;;;;;;2.33;1.50;;;7.20;99.90;;;;;;5075106;28;20395;-37
2023/02/04 02:23:13;;;;;;;2.45;1.20;;;7.20;99.90;;;;;;5075080;28;20475;-34
2023/02/04 02:25:38;;;;;;;3.53;1.52;;;7.20;99.90;;;;;;5075706;28;20483;-42
2023/02/04 02:28:10;;;;;;;2.10;1.40;;;7.10;99.90;;;;;;5075121;28;20028;-42
2023/02/04 02:30:36;;;;;;;2.92;1.60;;;7.20;99.90;;;;;;5075368;28;20039;-40
2023/02/04 02:33:02;;;;;;;2.05;1.40;;;7.10;99.90;;;;;;5075073;28;20444;-35
2023/02/04 02:35:28;;;;;;;3.08;1.80;;;7.10;99.90;;;;;;5074843;28;20100;-33
2023/02/04 02:37:53;;;;;;;1.88;1.33;;;7.20;99.90;;;;;;5076163;28;20162;-40
2023/02/04 02:40:19;;;;;;;2.10;1.20;;;7.20;99.90;;;;;;5074830;28;20107;-34
2023/02/04 02:42:48;;;;;;;2.25;1.38;;;7.20;99.90;;;;;;5074894;28;20443;-42
2023/02/04 02:45:26;;;;;;;2.05;1.33;;;7.10;99.90;;;;;;5074793;28;20023;-43
2023/02/04 02:47:53;;;;;;;1.75;1.10;;;7.20;99.90;;;;;;5074713;28;20029;-37
2023/02/04 02:50:22;;;;;;;1.73;1.10;;;7.20;99.90;;;;;;5074630;28;20486;-38
2023/02/04 02:52:47;;;;;;;2.38;1.50;;;7.20;99.90;;;;;;5075100;28;20036;-42
2023/02/04 02:55:16;;;;;;;1.92;1.30;;;7.20;99.90;;;;;;5075621;28;20025;-38
2023/02/04 02:57:43;;;;;;;2.63;1.25;;;7.20;99.90;;;;;;5074860;28;20032;-43
2023/02/04 03:00:22;;;;;;;1.65;1.27;;;7.20;99.90;;;;;;5074391;28;20536;-34
2023/02/04 03:03:14;;;;;;;2.03;1.20;;;7.20;99.90;;;;;;5075223;28;20120;-42
2023/02/04 03:05:45;;;;;;;2.60;1.60;;;7.30;99.90;;;;;;5074676;28;20486;-39
2023/02/04 03:08:13;;;;;;;1.50;1.00;;;7.50;99.90;;;;;;5074398;28;20021;-39
2023/02/04 03:10:39;;;;;;;2.38;1.17;;;7.70;99.90;;;;;;5074878;28;20032;-43
2023/02/04 03:13:06;;;;;;;1.42;1.00;;;7.90;99.90;;;;;;5074440;28;20028;-34
2023/02/04 03:15:31;;;;;;;1.98;1.10;;;7.90;99.90;;;;;;5074419;28;20032;-34
2023/02/04 03:17:59;;;;;;;1.75;1.17;;;7.90;99.90;;;;;;5074904;28;20031;-34
2023/02/04 03:20:27;;;;;;;1.83;1.00;;;7.80;99.90;;;;;;5074934;28;20020;-42
2023/02/04 03:22:53;;;;;;;3.00;1.02;;;7.80;99.90;;;;;;5074166;28;20028;-34
2023/02/04 03:25:19;;;;;;;1.52;1.13;;;7.70;99.90;;;;;;5074489;28;20032;-41
2023/02/04 03:27:45;;;;;;;2.10;0.98;;;7.70;99.90;;;;;;5072654;28;20390;-43
2023/02/04 03:30:12;;;;;;;1.30;0.90;;;7.60;99.90;;;;;;5073931;28;20025;-43
2023/02/04 03:32:37;;;;;;;1.85;1.10;;;7.60;99.90;;;;;;5073900;28;20028;-36
2023/02/04 03:35:03;;;;;;;1.58;1.02;;;7.50;99.90;;;;;;5074249;28;20021;-41
2023/02/04 03:37:28;;;;;;;1.15;0.98;;;7.50;99.90;;;;;;5073553;28;20021;-40
2023/02/04 03:39:54;;;;;;;1.80;1.00;;;7.40;99.90;;;;;;5073632;28;20033;-41
2023/02/04 03:42:20;;;;;;;1.55;1.00;;;7.40;99.90;;;;;;5073891;28;20020;-41
2023/02/04 03:44:45;;;;;;;1.50;1.05;;;7.40;99.90;;;;;;5074834;28;20075;-42
2023/02/04 03:47:11;;;;;;;1.40;1.00;;;7.30;99.90;;;;;;5073760;28;20020;-39
2023/02/04 03:49:36;;;;;;;3.80;1.10;;;7.30;99.90;;;;;;5073493;28;20024;-35
2023/02/04 03:52:03;;;;;;;1.48;0.95;;;7.30;99.90;;;;;;5073616;28;20478;-43
2023/02/04 03:54:29;;;;;;;1.15;0.80;;;7.30;99.90;;;;;;5073593;28;20024;-43
2023/02/04 03:56:54;;;;;;;0.90;0.70;;;7.30;99.90;;;;;;5073244;28;20036;-43
2023/02/04 03:59:20;;;;;;;1.50;1.02;;;7.20;99.90;;;;;;5073359;28;20032;-32
2023/02/04 04:01:45;;;;;;;1.35;0.98;;;7.30;99.90;;;;;;5073820;28;20505;-36
2023/02/04 04:04:11;;;;;;;1.10;0.80;;;7.30;99.90;;;;;;5073876;28;20024;-43
2023/02/04 04:06:36;;;;;;;1.40;1.10;;;7.40;99.90;;;;;;5073106;28;20483;-42
2023/02/04 04:09:03;;;;;;;2.15;1.02;;;7.60;99.90;;;;;;5074056;28;20097;-35
2023/02/04 04:11:29;;;;;;;1.02;0.80;;;7.80;99.90;;;;;;5073887;28;20028;-36
2023/02/04 04:13:55;;;;;;;1.05;0.80;;;7.90;99.90;;;;;;5073202;28;20025;-41
2023/02/04 04:16:21;;;;;;;1.77;1.05;;;7.80;99.90;;;;;;5072902;28;20036;-42
2023/02/04 04:18:48;;;;;;;1.27;0.90;;;7.80;99.90;;;;;;5073971;28;20078;-41
2023/02/04 04:21:13;;;;;;;1.88;1.00;;;7.80;99.90;;;;;;5073467;28;20025;-36
2023/02/04 04:23:39;;;;;;;1.30;0.80;;;7.70;99.90;;;;;;5073548;28;20051;-36
2023/02/04 04:26:06;;;;;;;1.63;0.73;;;7.60;99.90;;;;;;5072878;28;20040;-38
2023/02/04 04:28:31;;;;;;;1.30;0.88;;;7.60;99.90;;;;;;5073125;28;20482;-34
2023/02/04 04:30:57;;;;;;;1.30;0.90;;;7.60;99.90;;;;;;5072805;28;20075;-43
2023/02/04 04:33:22;;;;;;;1.02;0.77;;;7.50;99.90;;;;;;5072744;28;20032;-42
2023/02/04 04:35:48;;;;;;;1.50;1.00;;;7.50;99.90;;;;;;5072940;28;20146;-35
2023/02/04 04:38:13;;;;;;;1.20;0.90;;;7.40;99.90;;;;;;5073366;28;20017;-38
2023/02/04 04:40:39;;;;;;;3.63;1.08;;;7.40;99.90;;;;;;5072293;28;20542;-42
2023/02/04 04:43:05;;;;;;;2.05;1.00;;;7.40;99.90;;;;;;5072578;28;20028;-43
2023/02/04 04:45:30;;;;;;;1.25;0.80;;;7.40;99.90;;;;;;5072551;28;20244;-39
2023/02/04 04:47:56;;;;;;;1.00;0.90;;;7.40;99.90;;;;;;5073556;28;20044;-43
2023/02/04 04:50:22;;;;;;;2.55;0.90;;;7.40;99.90;;;;;;5072411;28;20483;-42
2023/02/04 04:52:47;;;;;;;0.90;0.70;;;7.30;99.90;;;;;;5072884;28;20035;-39
2023/02/04 04:55:13;;;;;;;1.48;1.08;;;7.30;99.90;;;;;;5072292;28;20111;-32
2023/02/04 04:57:38;;;;;;;1.70;0.90;;;7.30;99.90;;;;;;5072336;28;20032;-35
2023/02/04 05:00:06;;;;;;;1.40;0.80;;;7.30;99.90;;;;;;5072075;28;20055;-34
2023/02/04 05:02:32;;;;;;;1.05;0.82;;;7.30;99.90;;;;;;5073719;28;20082;-39
2023/02/04 05:04:57;;;;;;;1.15;0.80;;;7.30;99.90;;;;;;5073630;28;20029;-34
2023/02/04 05:07:23;;;;;;;1.88;0.90;;;7.50;99.90;;;;;;5071885;28;20100;-43
2023/02/04 05:09:49;;;;;;;1.45;0.80;;;7.70;99.90;;;;;;5071939;28;20032;-43
2023/02/04 05:12:14;;;;;;;1.52;0.80;;;7.80;99.90;;;;;;5072420;28;20046;-40
2023/02/04 05:14:40;;;;;;;1.00;0.80;;;7.90;99.90;;;;;;5072014;28;20036;-42
2023/02/04 05:17:06;;;;;;;2.13;0.88;;;7.80;99.90;;;;;;5071753;28;20725;-43
2023/02/04 05:19:31;;;;;;;2.35;1.02;;;7.80;99.90;;;;;;5071737;28;20116;-43
2023/02/04 05:22:00;;;;;;;1.25;0.80;;;7.80;99.90;;;;;;5071801;28;20052;-41
2023/02/04 05:24:26;;;;;;;1.48;0.80;;;7.70;99.90;;;;;;5071744;28;20028;-35
2023/02/04 05:26:51;;;;;;;1.33;0.88;;;7.60;99.90;;;;;;5071529;28;20021;-31
2023/02/04 05:29:17;;;;;;;2.72;1.00;;;7.60;99.90;;;;;;5071673;28;20379;-43
2023/02/04 05:31:43;;;;;;;1.25;0.80;;;7.50;99.90;;;;;;5071872;28;20024;-40
2023/02/04 05:34:08;;;;;;;1.45;0.93;;;7.50;99.90;;;;;;5072129;28;20031;-34
2023/02/04 05:36:34;;;;;;;1.15;0.73;;;7.50;99.90;;;;;;5071835;28;20425;-37
2023/02/04 05:38:59;;;;;;;1.88;0.70;;;7.40;99.90;;;;;;5072723;28;20028;-42
2023/02/04 05:41:25;;;;;;;2.95;0.88;;;7.40;99.90;;;;;;5071524;28;20035;-44
2023/02/04 05:43:51;;;;;;;1.25;0.70;;;7.40;99.90;;;;;;5071562;28;20039;-41
2023/02/04 05:46:16;;;;;;;1.23;0.70;;;7.40;99.90;;;;;;5071283;28;20024;-40
2023/02/04 05:48:42;;;;;;;1.45;0.90;;;7.30;99.90;;;;;;5071523;28;20390;-36
2023/02/04 05:51:07;;;;;;;1.17;0.80;;;7.30;99.90;;;;;;5070757;28;20029;-39
2023/02/04 05:53:33;;;;;;;1.08;0.70;;;7.30;99.90;;;;;;5071546;28;20039;-38
2023/02/04 05:55:58;;;;;;;1.20;0.80;;;7.30;99.90;;;;;;5072550;28;20103;-34
2023/02/04 05:58:24;;;;;;;2.05;0.77;;;7.30;99.90;;;;;;5071830;28;20032;-37
2023/02/04 06:00:50;;;;;;;1.85;0.70;;;7.30;99.90;;;;;;5071504;28;20052;-39
2023/02/04 06:03:18;;;;;;;1.52;0.77;;;7.30;99.90;;;;;;5071341;28;20096;-43
2023/02/04 06:05:44;;;;;;;2.00;0.80;;;7.40;99.90;;;;;;5071137;28;20433;-37
2023/02/04 06:08:09;;;;;;;1.88;0.80;;;7.60;99.90;;;;;;5071122;28;20024;-34
2023/02/04 06:10:35;;;;;;;1.27;0.90;;;7.80;99.90;;;;;;5071169;28;20021;-42
2023/02/04 06:13:01;;;;;;;1.30;0.75;;;7.80;99.90;;;;;;5071233;28;20031;-42
2023/02/04 06:15:26;;;;;;;1.30;0.90;;;7.90;99.90;;;;;;5071682;28;20474;-39
2023/02/04 06:17:52;;;;;;;1.23;0.70;;;7.80;99.90;;;;;;5070983;28;20108;-43
2023/02/04 06:20:18;;;;;;;1.00;0.77;;;7.80;99.90;;;;;;5070979;28;20024;-42
2023/02/04 06:22:43;;;;;;;0.98;0.70;;;7.70;99.90;;;;;;5071255;28;20021;-38
2023/02/04 06:25:09;;;;;;;1.20;0.70;;;7.70;99.90;;;;;;5071078;28;20029;-37
2023/02/04 06:27:34;;;;;;;0.90;0.55;;;7.60;99.90;;;;;;5072797;28;20035;-38
2023/02/04 06:30:00;;;;;;;2.55;0.80;;;7.60;99.90;;;;;;5072539;28;20112;-37
2023/02/04 06:32:26;;;;;;;1.33;0.90;;;7.50;99.90;;;;;;5071673;28;20509;-43
2023/02/04 06:34:51;;;;;;;1.17;0.80;;;7.50;99.90;;;;;;5070967;28;20517;-40
2023/02/04 06:37:17;;;;;;;1.23;0.80;;;7.50;99.90;;;;;;5070629;28;20111;-42
2023/02/04 06:39:43;;;;;;;1.15;0.60;;;7.40;99.90;;;;;;5071954;28;20032;-33
2023/02/04 06:42:09;;;;;;;2.95;0.77;;;7.40;99.90;;;;;;5071338;28;20025;-35
2023/02/04 06:44:35;;;;;;;1.65;0.90;;;7.40;99.90;;;;;;5070873;28;20035;-41
2023/02/04 06:47:00;;;;;;;1.95;1.00;;;7.40;99.90;;;;;;5070628;28;20021;-33
2023/02/04 06:49:26;;;;;;;2.03;1.10;;;7.30;99.90;;;;;;5070761;28;20384;-40
2023/02/04 06:51:51;;;;;;;2.97;1.00;;;7.30;99.90;;;;;;5070694;28;20056;-34
2023/02/04 06:54:17;;;;;;;2.72;0.90;;;7.30;99.90;;;;;;5071271;28;20098;-43
2023/02/04 06:56:43;;;;;;;2.65;1.10;;;7.30;99.90;;;;;;5071385;28;20020;-43
2023/02/04 06:59:09;;;;;;;2.95;1.10;;;7.30;99.90;;;;;;5071448;28;20125;-33
2023/02/04 07:01:35;;;;;;;2.28;0.93;;;7.30;99.90;;;;;;5070860;28;20032;-43
2023/02/04 07:04:00;;;;;;;3.63;1.30;;;7.30;99.90;;;;;;5074526;28;20027;-39
2023/02/04 07:06:26;;;;;;;2.35;1.20;;;7.50;99.90;;;;;;5075041;28;20050;-34
2023/02/04 07:08:52;;;;;;;3.55;1.10;;;7.60;99.90;;;;;;5074986;28;20025;-43
2023/02/04 07:11:17;;;;;;;1.95;1.00;;;7.80;99.90;;;;;;5074443;28;20021;-41
2023/02/04 07:13:43;;;;;;;2.83;1.20;;;7.80;99.90;;;;;;5074198;28;20443;-42
2023/02/04 07:16:09;;;;;;;3.60;1.30;;;7.80;99.90;;;;;;5075187;28;20056;-39
2023/02/04 07:18:34;;;;;;;2.00;0.98;;;7.80;99.90;;;;;;5074484;28;20025;-37
2023/02/04 07:21:00;;;;;;;2.10;1.23;;;7.80;99.90;;;;;;5073933;28;20108;-36
2023/02/04 07:23:27;;;;;;;2.58;1.35;;;7.70;99.90;;;;;;5074139;28;20042;-36
2023/02/04 07:25:55;;;;;;;3.35;1.20;;;7.70;99.90;;;;;;5073949;28;20054;-43
2023/02/04 07:28:21;;;;;;;2.22;1.15;;;7.60;99.90;;;;;;5074000;28;20039;-32
2023/02/04 07:30:46;;;;;;;4.80;1.60;;;7.50;99.90;;;;;;5073912;28;20028;-43
2023/02/04 07:33:12;;;;;;;3.50;1.50;;;7.50;99.90;;;;;;5074987;28;20375;-36
2023/02/04 07:35:38;;;;;;;3.65;1.38;;;7.50;99.90;;;;;;5073751;28;20032;-35
2023/02/04 07:38:04;;;;;;;2.28;1.40;;;7.40;99.90;;;;;;5073687;28;20479;-38
2023/02/04 07:40:29;;;;;;;2.60;1.20;;;7.40;99.90;;;;;;5074413;28;20033;-35
2023/02/04 07:42:55;;;;;;;2.20;1.30;;;7.40;99.90;;;;;;5074578;28;20533;-33
2023/02/04 07:45:21;;;;;;;2.67;1.50;;;7.40;99.90;;;;;;5073804;28;20031;-33
2023/02/04 07:47:46;;;;;;;4.78;1.40;;;7.30;99.90;;;;;;5073507;28;20032;-37
2023/02/04 07:50:12;;;;;;;2.22;1.38;;;7.30;99.90;;;;;;5072400;28;20032;-39
2023/02/04 07:52:38;;;;;;;2.30;1.27;;;7.30;99.90;;;;;;5073691;28;20405;-43
2023/02/04 07:55:05;;;;;;;2.33;1.40;;;7.30;99.90;;;;;;5073630;28;20038;-43
2023/02/04 07:57:30;;;;;;;2.88;1.38;;;7.30;99.90;;;;;;5073327;28;20107;-42
2023/02/04 07:59:56;;;;;;;2.78;1.45;;;7.30;99.90;;;;;;5073335;28;20116;-43
2023/02/04 08:02:21;;;;;;;2.60;1.48;;;7.30;99.90;;;;;;5073479;28;20047;-43
2023/02/04 08:04:47;;;;;;;4.45;1.50;;;7.30;99.90;;;;;;5073264;28;20478;-43
2023/02/04 08:07:13;;;;;;;2.95;1.55;;;7.30;99.90;;;;;;5073067;28;20035;-36
2023/02/04 08:09:38;;;;;;;4.10;1.60;;;7.30;99.90;;;;;;5073380;28;20060;-34
2023/02/04 08:12:04;;;;;;;5.35;1.65;;;7.30;99.90;;;;;;5071872;28;20074;-43
2023/02/04 08:14:30;;;;;;;3.42;1.73;;;7.20;99.90;;;;;;5072608;28;20039;-37
2023/02/04 08:16:56;;;;;;;5.93;2.03;;;7.30;99.90;;;;;;5072972;28;20047;-35
2023/02/04 08:19:21;;;;;;;2.95;1.67;;;7.30;99.90;;;;;;5072851;28;20028;-39
2023/02/04 08:21:47;;;;;;;4.13;1.80;;;7.20;99.90;;;;;;5073197;28;20021;-37
2023/02/04 08:24:14;;;;;;;4.28;1.55;;;7.30;99.90;;;;;;5073060;28;20043;-35
2023/02/04 08:26:41;;;;;;;3.42;1.45;;;7.20;99.90;;;;;;5073316;28;20108;-38
2023/02/04 08:29:08;;;;;;;3.75;1.83;;;7.20;99.90;;;;;;5074216;28;20048;-34
2023/02/04 08:31:33;;;;;;;3.55;1.70;;;7.20;99.90;;;;;;5072929;28;20028;-37
2023/02/04 08:33:59;;;;;;;2.83;1.50;;;7.20;99.90;;;;;;5073445;28;20036;-43
2023/02/04 08:36:25;;;;;;;2.35;1.40;;;7.30;99.90;;;;;;5072722;28;20536;-34
2023/02/04 08:38:50;;;;;;;2.85;1.50;;;7.20;99.90;;;;;;5072920;28;20375;-38
2023/02/04 08:41:16;;;;;;;2.53;1.40;;;7.20;99.90;;;;;;5072475;28;20119;-40
2023/02/04 08:43:41;;;;;;;3.10;1.60;;;7.20;99.90;;;;;;5072588;28;20016;-42
2023/02/04 08:46:07;;;;;;;5.13;1.60;;;7.20;99.90;;;;;;5072835;28;20081;-43
2023/02/04 08:48:33;;;;;;;3.80;1.77;;;7.30;99.90;;;;;;5072866;28;20020;-42
2023/02/04 08:50:59;;;;;;;4.10;1.95;;;7.20;99.90;;;;;;5072455;28;20032;-40
2023/02/04 08:53:24;;;;;;;4.57;1.88;;;7.20;99.90;;;;;;5072780;28;20129;-39
2023/02/04 08:55:50;;;;;;;4.70;1.85;;;7.20;99.90;;;;;;5072906;28;20020;-43
2023/02/04 08:58:15;;;;;;;4.40;1.70;;;7.20;99.90;;;;;;5072208;28;20043;-42
2023/02/04 09:00:41;;;;;;;5.75;1.60;;;7.20;99.90;;;;;;5072415;28;20025;-32
2023/02/04 09:03:07;;;;;;;2.78;1.52;;;7.30;99.90;;;;;;5072148;28;20064;-37
2023/02/04 09:05:33;;;;;;;3.15;1.48;;;7.30;99.90;;;;;;5072154;28;20027;-41
2023/02/04 09:07:58;;;;;;;3.58;1.65;;;7.20;99.90;;;;;;5071995;28;20028;-42
2023/02/04 09:10:24;;;;;;;3.78;1.80;;;7.20;99.90;;;;;;5072106;28;20060;-37
2023/02/04 09:12:54;;;;;;;3.08;1.30;;;7.20;99.90;;;;;;5072018;28;20060;-41
2023/02/04 09:15:21;;;;;;;3.50;1.77;;;7.20;99.90;;;;;;5072673;28;20062;-33
2023/02/04 09:17:47;;;;;;;2.33;1.35;;;7.20;99.90;;;;;;5073851;28;20021;-43
2023/02/04 09:20:12;;;;;;;11.68;4.20;;;7.30;99.90;;;;;;5070718;28;20089;-34
2023/02/04 09:22:38;;;;;;;22.80;4.50;;;7.20;99.90;;;;;;5072845;28;20029;-40
2023/02/04 09:25:04;;;;;;;15.70;4.85;;;7.30;99.90;;;;;;5071376;28;20016;-36
2023/02/04 09:27:30;;;;;;;19.73;5.13;;;7.20;99.90;;;;;;5070945;28;20024;-39
2023/02/04 09:29:55;;;;;;;13.15;4.78;;;7.20;99.90;;;;;;5071533;28;20032;-44
2023/02/04 09:32:22;;;;;;;15.65;4.70;;;7.20;99.90;;;;;;5071555;28;20028;-34
2023/02/04 09:34:49;;;;;;;16.35;4.97;;;7.20;99.90;;;;;;5072031;28;20138;-42
2023/02/04 09:37:14;;;;;;;12.80;4.38;;;7.20;99.90;;;;;;5072222;28;20028;-44
2023/02/04 09:39:40;;;;;;;15.93;5.13;;;7.20;99.90;;;;;;5071308;28;20025;-39
2023/02/04 09:42:08;;;;;;;16.45;4.68;;;7.20;99.90;;;;;;5071522;28;20032;-35
2023/02/04 09:44:33;;;;;;;13.35;4.75;;;7.20;99.90;;;;;;5072486;28;20470;-44
2023/02/04 09:47:01;;;;;;;16.35;4.88;;;7.30;99.90;;;;;;5071132;28;20117;-44
2023/02/04 09:49:27;;;;;;;10.10;4.30;;;7.30;99.90;;;;;;5071444;28;20025;-38
2023/02/04 09:51:53;;;;;;;10.65;4.32;;;7.30;99.90;;;;;;5071651;28;20021;-41
2023/02/04 09:54:21;;;;;;;11.73;4.30;;;7.30;99.90;;;;;;5071773;28;20478;-34
2023/02/04 09:56:47;;;;;;;13.27;4.10;;;7.30;99.90;;;;;;5071145;28;20036;-39
2023/02/04 09:59:19;;;;;;;9.90;3.75;;;7.30;99.90;;;;;;5071033;28;20090;-38
2023/02/04 10:01:50;;;;;;;8.70;4.00;;;7.40;99.90;;;;;;5072185;28;20017;-34
2023/02/04 10:04:23;;;;;;;13.27;4.32;;;7.40;99.90;;;;;;5071521;28;20066;-43
2023/02/04 10:06:48;;;;;;;9.18;3.40;;;7.40;99.90;;;;;;5071690;28;20439;-43
2023/02/04 10:09:15;;;;;;;10.65;3.90;;;7.40;99.90;;;;;;5072420;28;20044;-44
2023/02/04 10:11:43;;;;;;;10.45;3.67;;;7.40;99.90;;;;;;5071157;28;20025;-44
2023/02/04 10:14:17;;;;;;;11.38;3.30;;;7.40;99.90;;;;;;5071786;28;20107;-44
2023/02/04 10:16:47;;;;;;;8.40;3.58;;;7.40;99.90;;;;;;5071246;28;20024;-36
2023/02/04 10:19:14;;;;;;;7.55;3.40;;;7.50;99.90;;;;;;5072618;28;20044;-38
2023/02/04 10:21:43;;;;;;;9.60;3.40;;;7.40;99.90;;;;;;5071018;28;20029;-37
2023/02/04 10:24:15;;;;;;;8.90;3.55;;;7.40;99.90;;;;;;5070917;28;20371;-36
2023/02/04 10:26:40;;;;;;;10.85;3.67;;;7.40;99.90;;;;;;5071513;28;20375;-44
2023/02/04 10:29:13;;;;;;;8.50;3.30;;;7.40;99.90;;;;;;5071363;28;20036;-38
2023/02/04 10:31:44;;;;;;;9.30;3.63;;;7.40;99.90;;;;;;5071005;28;20024;-37
2023/02/04 10:34:21;;;;;;;10.90;3.03;;;7.40;99.90;;;;;;5070684;28;20047;-44
2023/02/04 10:36:52;;;;;;;8.60;3.33;;;7.40;99.90;;;;;;5071085;28;20028;-40
2023/02/04 10:39:21;;;;;;;9.30;3.45;;;7.50;99.90;;;;;;5074699;28;20040;-37
2023/02/04 10:41:52;;;;;;;7.60;2.67;;;7.40;99.90;;;;;;5075405;28;20096;-44
2023/02/04 10:44:24;;;;;;;12.52;3.05;;;7.40;99.90;;;;;;5074863;28;20024;-38
2023/02/04 10:46:56;;;;;;;10.63;3.20;;;7.40;99.90;;;;;;5074570;28;20012;-43
2023/02/04 10:49:23;;;;;;;8.75;2.78;;;7.50;99.90;;;;;;5074747;28;20025;-44
2023/02/04 10:51:51;;;;;;;7.53;2.88;;;7.40;99.90;;;;;;5074589;28;20443;-39
2023/02/04 10:54:29;;;;;;;8.80;2.75;;;7.50;99.90;;;;;;5074606;28;20024;-44
2023/02/04 10:57:18;;;;;;;6.53;2.60;;;7.50;99.90;;;;;;5075717;28;20021;-44
2023/02/04 10:59:46;;;;;;;7.85;2.90;;;7.40;99.90;;;;;;5074334;28;20036;-43
2023/02/04 11:02:38;;;;;;;8.38;2.90;;;7.50;99.90;;;;;;5074383;28;20043;-38
2023/02/04 11:05:16;;;;;;;6.05;2.53;;;7.40;99.90;;;;;;5074021;28;20052;-44
2023/02/04 11:07:42;;;;;;;5.40;2.53;;;7.50;99.90;;;;;;5074179;28;20028;-40
2023/02/04 11:10:13;;;;;;;11.32;2.88;;;7.50;99.90;;;;;;5075242;28;20024;-34
2023/02/04 11:13:00;;;;;;;8.85;3.25;;;7.40;99.90;;;;;;5076376;28;20028;-35
2023/02/04 11:16:11;;;;;;;5.43;2.28;;;7.40;99.90;;;;;;5074210;28;20049;-38
2023/02/04 11:18:50;;;;;;;9.07;2.83;;;7.40;99.90;;;;;;5073632;28;20090;-36
2023/02/04 11:21:30;;;;;;;6.25;2.60;;;7.40;99.90;;;;;;5074174;28;20115;-44
2023/02/04 11:24:11;;;;;;;6.38;2.80;;;7.50;99.90;;;;;;5074977;28;20027;-44
2023/02/04 11:26:41;;;;;;;5.32;2.30;;;7.50;99.90;;;;;;5074803;28;20123;-41
2023/02/04 11:29:08;;;;;;;6.40;2.58;;;7.50;99.90;;;;;;5073838;28;20025;-41
2023/02/04 11:31:34;;;;;;;6.20;2.33;;;7.50;99.90;;;;;;5073851;28;20548;-37
2023/02/04 11:34:25;;;;;;;7.55;2.53;;;7.50;99.90;;;;;;5075033;28;20467;-44
2023/02/04 11:36:58;;;;;;;7.75;2.60;;;7.50;99.90;;;;;;5073698;28;20032;-43
2023/02/04 11:39:40;;;;;;;20.55;3.63;;;7.50;99.90;;;;;;5073664;28;20025;-44
2023/02/04 11:42:21;;;;;;;10.70;2.90;;;7.50;99.90;;;;;;5074256;28;20052;-38
2023/02/04 11:45:12;;;;;;;13.48;3.13;;;7.50;99.90;;;;;;5075185;28;20029;-33
2023/02/04 11:47:39;;;;;;;9.30;3.10;;;7.50;99.90;;;;;;5073041;28;20033;-33
2023/02/04 11:50:18;;;;;;;15.85;3.55;;;7.50;99.90;;;;;;5072946;28;20027;-44
2023/02/04 11:52:44;;;;;;;8.38;2.83;;;7.50;99.90;;;;;;5073874;28;20029;-37
2023/02/04 11:55:10;;;;;;;12.13;2.92;;;7.50;99.90;;;;;;5073644;28;20036;-43
2023/02/04 11:57:42;;;;;;;13.55;2.95;;;7.60;99.90;;;;;;5073474;28;20032;-36
2023/02/04 12:00:25;;;;;;;11.00;3.10;;;7.60;99.90;;;;;;5073340;28;20127;-41
2023/02/04 12:03:09;;;;;;;9.57;2.70;;;7.60;99.90;;;;;;5074299;28;20024;-44
2023/02/04 12:05:40;;;;;;;9.65;3.25;;;7.60;99.90;;;;;;5073444;28;20121;-44
2023/02/04 12:08:12;;;;;;;8.20;2.38;;;7.60;99.90;;;;;;5073431;28;20029;-43
2023/02/04 12:10:38;;;;;;;9.80;2.60;;;7.60;99.90;;;;;;5074600;28;20040;-36
2023/02/04 12:13:15;;;;;;;8.13;2.38;;;7.70;99.90;;;;;;5073804;28;20024;-44
2023/02/04 12:15:40;;;;;;;7.32;2.05;;;7.70;99.90;;;;;;5073143;28;20186;-36
2023/02/04 12:18:11;;;;;;;6.90;2.00;;;7.70;99.90;;;;;;5073077;28;20492;-45
2023/02/04 12:20:37;;;;;;;8.40;2.70;;;7.70;99.90;;;;;;5073006;28;20032;-42
2023/02/04 12:23:03;;;;;;;5.15;2.08;;;7.70;99.90;;;;;;5073066;28;20023;-38
2023/02/04 12:25:29;;;;;;;5.97;2.03;;;7.70;99.90;;;;;;5072854;28;20032;-42
2023/02/04 12:27:55;;;;;;;5.55;2.10;;;7.70;99.90;;;;;;5073369;28;20031;-41
2023/02/04 12:30:22;;;;;;;10.68;2.50;;;7.70;99.90;;;;;;5072850;28;20029;-44
2023/02/04 12:32:48;;;;;;;9.93;2.35;;;7.70;99.90;;;;;;5072900;28;20501;-44
2023/02/04 12:35:13;;;;;;;8.82;2.22;;;7.80;99.90;;;;;;5073276;28;20033;-42
2023/02/04 12:37:39;;;;;;;7.82;2.08;;;7.80;99.90;;;;;;5072378;28;20024;-41
2023/02/04 12:40:05;;;;;;;5.72;2.03;;;7.70;99.90;;;;;;5072596;28;20033;-39
2023/02/04 12:42:31;;;;;;;4.53;1.90;;;7.80;99.90;;;;;;5073218;28;20023;-39
2023/02/04 12:44:56;;;;;;;6.30;1.83;;;7.80;99.90;;;;;;5074373;28;20107;-37
2023/02/04 12:47:23;;;;;;;7.90;2.33;;;7.80;99.90;;;;;;5072756;28;20083;-37
2023/02/04 12:49:48;;;;;;;8.27;2.17;;;7.80;99.90;;;;;;5072483;28;20025;-44
2023/02/04 12:52:14;;;;;;;7.53;2.10;;;7.70;99.90;;;;;;5073143;28;20029;-42
2023/02/04 12:54:39;;;;;;;4.93;2.30;;;7.70;99.90;;;;;;5073892;28;20024;-44
2023/02/04 12:57:05;;;;;;;4.55;1.90;;;7.80;99.90;;;;;;5072480;28;20028;-34